createdAt,value
2023-05-06T15:43:36.373Z,15.27
2023-05-06T15:54:37.818Z,14.40
2023-05-06T16:00:06.030Z,9.18
2023-05-06T16:05:34.591Z,11.63
2023-05-06T16:11:01.895Z,16.05
2023-05-06T16:16:28.749Z,13.32
2023-05-06T16:21:56.996Z,13.55
2023-05-06T16:27:24.657Z,13.90
2023-05-06T16:32:51.961Z,14.30
2023-05-06T16:38:19.089Z,10.38
2023-05-06T16:43:46.151Z,14.20
2023-05-06T16:49:12.790Z,10.85
2023-05-06T16:54:39.818Z,13.77
2023-05-06T17:00:12.318Z,13.88
2023-05-06T17:05:40.062Z,7.47
2023-05-06T17:11:07.038Z,9.75
2023-05-06T17:16:34.352Z,8.15
2023-05-06T17:22:02.487Z,9.40
2023-05-06T17:27:30.857Z,10.73
2023-05-06T17:32:58.308Z,9.73
2023-05-06T17:38:25.919Z,6.72
2023-05-06T17:43:53.280Z,5.22
2023-05-06T17:49:19.925Z,3.03
2023-05-06T17:54:56.958Z,5.05
2023-05-06T18:00:28.279Z,6.03
2023-05-06T18:05:56.790Z,14.05
2023-05-06T18:11:24.455Z,8.13
2023-05-06T18:16:52.646Z,4.32
2023-05-06T18:22:20.585Z,4.32
2023-05-06T18:27:49.554Z,10.25
2023-05-06T18:33:17.000Z,6.18
2023-05-06T18:38:44.461Z,5.28
2023-05-06T18:44:11.290Z,5.65
2023-05-06T18:49:38.182Z,9.13
2023-05-06T18:55:05.752Z,7.22
2023-05-06T19:00:33.567Z,8.80
2023-05-06T19:06:03.051Z,8.75
2023-05-06T19:11:30.701Z,8.70
2023-05-06T19:16:58.911Z,4.40
2023-05-06T19:22:26.473Z,7.53
2023-05-06T19:27:53.431Z,7.15
2023-05-06T19:33:20.657Z,7.38
2023-05-06T19:38:47.778Z,4.15
2023-05-06T19:44:15.706Z,7.53
2023-05-06T19:49:43.822Z,3.55
2023-05-06T19:55:11.882Z,6.63
2023-05-06T20:00:39.760Z,8.70
2023-05-06T20:06:07.864Z,5.28
2023-05-06T20:11:35.457Z,5.40
2023-05-06T20:17:02.981Z,6.00
2023-05-06T20:22:31.621Z,3.67
2023-05-06T20:28:00.775Z,4.80
2023-05-06T20:33:28.028Z,9.15
2023-05-06T20:38:55.875Z,8.32
2023-05-06T20:44:27.349Z,5.85
2023-05-06T20:49:55.061Z,3.35
2023-05-06T20:55:23.961Z,8.25
2023-05-06T21:00:51.517Z,5.88
2023-05-06T21:06:19.129Z,2.85
2023-05-06T21:11:46.686Z,8.00
2023-05-06T21:17:13.721Z,3.70
2023-05-06T21:22:40.459Z,5.72
2023-05-06T21:28:07.593Z,6.03
2023-05-06T21:33:34.839Z,4.07
2023-05-06T21:39:06.164Z,6.13
2023-05-06T21:44:34.382Z,4.93
2023-05-06T21:50:07.910Z,10.90
2023-05-06T21:55:34.536Z,5.13
2023-05-06T22:01:01.732Z,5.55
2023-05-06T22:06:29.329Z,4.95
2023-05-06T22:11:56.667Z,6.70
2023-05-06T22:17:24.346Z,5.28
2023-05-06T22:22:52.753Z,5.60
2023-05-06T22:28:20.093Z,4.38
2023-05-06T22:33:47.823Z,4.80
2023-05-06T22:39:14.742Z,3.60
2023-05-06T22:44:42.011Z,4.57
2023-05-06T22:50:09.201Z,3.47
2023-05-06T22:55:38.346Z,6.15
2023-05-06T23:01:07.701Z,3.50
2023-05-06T23:06:34.974Z,5.68
2023-05-06T23:12:03.119Z,3.88
2023-05-06T23:17:29.953Z,4.47
2023-05-06T23:22:56.988Z,4.80
2023-05-06T23:28:24.114Z,4.38
2023-05-06T23:33:51.078Z,9.85
2023-05-06T23:39:18.551Z,4.43
2023-05-06T23:44:46.632Z,6.15
2023-05-06T23:50:15.401Z,8.40
2023-05-06T23:55:45.220Z,4.20
